createdAt,value
2019-02-11T00:05:03.273Z,94480.00
2019-02-11T00:10:32.539Z,94493.00
2019-02-11T00:16:01.868Z,94491.00
2019-02-11T00:21:31.156Z,94491.00
2019-02-11T00:27:00.427Z,94474.00
2019-02-11T00:32:29.707Z,94501.00
2019-02-11T00:37:58.973Z,94504.00
2019-02-11T00:43:28.279Z,94510.00
2019-02-11T00:48:57.577Z,94517.00
2019-02-11T00:54:28.758Z,94512.00
2019-02-11T01:00:00.831Z,94512.00
2019-02-11T01:05:30.094Z,94528.00
2019-02-11T01:10:59.364Z,94528.00
2019-02-11T01:16:28.625Z,94534.00
2019-02-11T01:21:57.913Z,94533.00
2019-02-11T01:27:27.184Z,94547.00
2019-02-11T01:32:58.453Z,94544.00
2019-02-11T01:38:27.701Z,94554.00
2019-02-11T01:43:57.952Z,94563.00
2019-02-11T01:49:27.210Z,94558.00
2019-02-11T01:54:56.534Z,94555.00
2019-02-11T02:00:25.989Z,94553.00
2019-02-11T02:05:57.305Z,94572.00
2019-02-11T02:11:28.529Z,94581.00
2019-02-11T02:16:57.798Z,94579.00
2019-02-11T02:22:28.603Z,94589.00
2019-02-11T02:27:57.974Z,94598.00
2019-02-11T02:33:27.492Z,94591.00
2019-02-11T02:38:57.032Z,94590.00
2019-02-11T02:44:26.561Z,94604.00
2019-02-11T02:49:55.937Z,94609.00
2019-02-11T02:55:25.212Z,94607.00
2019-02-11T03:00:54.503Z,94613.00
2019-02-11T03:06:23.786Z,94624.00
2019-02-11T03:11:53.072Z,94619.00
2019-02-11T03:17:22.322Z,94621.00
2019-02-11T03:22:51.587Z,94627.00
2019-02-11T03:28:20.933Z,94647.00
2019-02-11T03:33:50.191Z,94682.00
2019-02-11T03:39:19.697Z,94695.00
2019-02-11T03:44:48.953Z,94707.00
2019-02-11T03:50:18.216Z,94731.00
2019-02-11T03:55:47.478Z,94738.00
2019-02-11T04:01:17.701Z,94741.00
2019-02-11T04:06:47.142Z,94740.00
2019-02-11T04:12:17.442Z,94721.00
2019-02-11T04:17:46.719Z,94708.00
2019-02-11T04:23:15.989Z,94694.00
2019-02-11T04:28:45.256Z,94744.00
2019-02-11T04:34:14.550Z,94740.00
2019-02-11T04:39:43.889Z,94754.00
2019-02-11T04:45:13.222Z,94781.00
2019-02-11T04:50:42.633Z,94776.00
2019-02-11T04:56:11.941Z,94797.00
2019-02-11T05:01:41.259Z,94777.00
2019-02-11T05:07:10.535Z,94804.00
2019-02-11T05:12:39.800Z,94809.00
2019-02-11T05:18:09.067Z,94817.00
2019-02-11T05:23:38.342Z,94815.00
2019-02-11T05:29:07.620Z,94831.00
2019-02-11T05:34:36.887Z,94832.00
2019-02-11T05:40:13.594Z,94839.00
2019-02-11T05:45:42.877Z,94844.00
2019-02-11T05:51:12.140Z,94862.00
2019-02-11T05:56:41.408Z,94867.00
2019-02-11T06:02:10.703Z,94877.00
2019-02-11T06:07:39.968Z,94887.00
2019-02-11T06:13:09.226Z,94896.00
2019-02-11T06:18:38.500Z,94894.00
2019-02-11T06:24:07.771Z,94922.00
2019-02-11T06:29:37.027Z,94958.00
2019-02-11T06:35:08.704Z,94959.00
2019-02-11T06:40:38.916Z,94968.00
2019-02-11T06:46:08.171Z,94979.00
2019-02-11T06:51:37.431Z,94990.00
2019-02-11T06:57:06.710Z,94992.00
2019-02-11T07:02:35.969Z,95013.00
2019-02-11T07:08:05.237Z,95035.00
2019-02-11T07:13:34.507Z,95053.00
2019-02-11T07:19:03.777Z,95069.00
2019-02-11T07:24:33.042Z,95086.00
2019-02-11T07:30:02.334Z,95084.00
2019-02-11T07:35:31.596Z,95106.00
2019-02-11T07:41:00.928Z,95122.00
2019-02-11T07:46:31.832Z,95124.00
2019-02-11T07:52:01.118Z,95133.00
2019-02-11T07:57:30.377Z,95139.00
2019-02-11T08:02:59.651Z,95144.00
2019-02-11T08:08:28.918Z,95157.00
2019-02-11T08:13:58.181Z,95167.00
2019-02-11T08:19:27.438Z,95178.00
2019-02-11T08:24:56.731Z,95181.00
2019-02-11T08:30:26.001Z,95205.00
2019-02-11T08:35:55.266Z,95220.00
2019-02-11T08:41:24.541Z,95239.00
2019-02-11T08:46:53.815Z,95255.00
2019-02-11T08:52:24.056Z,95261.00
2019-02-11T08:57:53.333Z,95290.00
2019-02-11T09:03:22.736Z,95301.00
2019-02-11T09:08:52.073Z,95316.00
2019-02-11T09:14:21.331Z,95325.00
2019-02-11T09:19:50.617Z,95322.00
2019-02-11T09:25:19.881Z,95319.00
2019-02-11T09:30:49.148Z,95333.00
2019-02-11T09:36:18.423Z,95347.00
2019-02-11T09:41:47.749Z,95344.00
2019-02-11T09:47:17.013Z,95358.00
2019-02-11T09:52:46.297Z,95363.00
2019-02-11T09:58:16.563Z,95376.00
2019-02-11T10:03:45.825Z,95393.00
2019-02-11T10:09:15.161Z,95398.00
2019-02-11T10:14:44.439Z,95407.00
2019-02-11T10:20:15.804Z,95416.00
2019-02-11T10:25:45.070Z,95421.00
2019-02-11T10:31:15.412Z,95436.00
2019-02-11T10:36:44.680Z,95434.00
2019-02-11T10:42:13.938Z,95447.00
2019-02-11T10:47:46.884Z,95458.00
2019-02-11T10:53:16.144Z,95472.00
2019-02-11T10:58:45.417Z,95468.00
2019-02-11T11:04:14.674Z,95482.00
2019-02-11T11:09:43.951Z,95492.00
2019-02-11T11:15:13.361Z,95488.00
2019-02-11T11:20:42.638Z,95496.00
2019-02-11T11:26:11.923Z,95517.00
2019-02-11T11:31:41.346Z,95527.00
2019-02-11T11:37:10.610Z,95529.00
2019-02-11T11:42:39.954Z,95543.00
2019-02-11T11:48:09.234Z,95542.00
2019-02-11T11:53:38.507Z,95553.00
2019-02-11T11:59:07.792Z,95563.00
2019-02-11T12:04:39.019Z,95569.00
2019-02-11T12:10:09.921Z,95575.00
2019-02-11T12:15:39.257Z,95585.00
2019-02-11T12:21:09.546Z,95596.00
2019-02-11T12:26:41.812Z,95604.00
2019-02-11T12:32:11.134Z,95623.00
2019-02-11T12:37:40.395Z,95620.00
2019-02-11T12:43:12.027Z,95631.00
2019-02-11T12:48:41.295Z,95646.00
2019-02-11T12:54:10.573Z,95654.00
2019-02-11T12:59:40.149Z,95648.00
2019-02-11T13:05:11.121Z,95654.00
2019-02-11T13:10:40.397Z,95681.00
2019-02-11T13:16:09.673Z,95692.00
2019-02-11T13:21:39.968Z,95677.00
2019-02-11T13:27:09.252Z,95701.00
2019-02-11T13:32:38.519Z,95723.00
2019-02-11T13:38:07.792Z,95722.00
2019-02-11T13:43:37.106Z,95729.00
2019-02-11T13:49:06.472Z,95729.00
2019-02-11T13:54:35.692Z,95751.00
2019-02-11T14:00:11.039Z,95750.00
2019-02-11T14:05:40.388Z,95752.00
2019-02-11T14:11:09.680Z,95767.00
2019-02-11T14:16:38.937Z,95773.00
2019-02-11T14:22:08.366Z,95788.00
2019-02-11T14:27:38.658Z,95804.00
2019-02-11T14:33:08.011Z,95806.00
2019-02-11T14:38:37.295Z,95819.00
2019-02-11T14:44:06.572Z,95825.00
2019-02-11T14:49:35.805Z,95845.00
2019-02-11T14:55:07.708Z,95836.00
2019-02-11T15:00:36.980Z,95847.00
2019-02-11T15:06:06.259Z,95854.00
2019-02-11T15:11:35.507Z,95873.00
2019-02-11T15:17:04.775Z,95890.00
2019-02-11T15:22:34.105Z,95897.00
2019-02-11T15:28:03.380Z,95903.00
2019-02-11T15:33:32.652Z,95908.00
2019-02-11T15:39:01.929Z,95916.00
2019-02-11T15:44:31.210Z,95927.00
2019-02-11T15:50:00.480Z,95938.00
2019-02-11T15:55:29.832Z,95954.00
2019-02-11T16:01:18.607Z,95958.00
2019-02-11T16:06:48.015Z,95966.00
2019-02-11T16:12:17.612Z,95978.00
2019-02-11T16:17:47.011Z,95997.00
2019-02-11T16:23:16.485Z,95986.00
2019-02-11T16:28:45.921Z,95997.00
2019-02-11T16:34:15.433Z,96015.00
2019-02-11T16:39:44.986Z,96012.00
2019-02-11T16:45:23.097Z,96029.00
2019-02-11T16:50:52.735Z,96015.00
2019-02-11T16:56:22.109Z,96016.00
2019-02-11T17:01:53.525Z,96045.00
2019-02-11T17:07:24.276Z,96046.00
2019-02-11T17:12:54.158Z,96059.00
2019-02-11T17:18:23.696Z,96064.00
2019-02-11T17:23:53.146Z,96083.00
2019-02-11T17:29:22.648Z,96095.00
2019-02-11T17:34:52.004Z,96096.00
2019-02-11T17:40:22.308Z,96097.00
2019-02-11T17:45:51.746Z,96107.00
2019-02-11T17:51:21.424Z,96112.00
2019-02-11T17:56:50.830Z,96114.00
2019-02-11T18:02:20.819Z,96129.00
2019-02-11T18:07:50.685Z,96136.00
2019-02-11T18:13:20.173Z,96133.00
2019-02-11T18:18:49.508Z,96131.00
2019-02-11T18:24:19.010Z,96136.00
2019-02-11T18:29:48.559Z,96132.00
2019-02-11T18:35:20.726Z,96137.00
2019-02-11T18:40:50.198Z,96158.00
2019-02-11T18:46:19.599Z,96170.00
2019-02-11T18:51:49.157Z,96165.00
2019-02-11T18:57:18.525Z,96184.00
2019-02-11T19:02:49.020Z,96178.00
2019-02-11T19:08:18.542Z,96204.00
2019-02-11T19:13:48.182Z,96202.00
2019-02-11T19:19:17.798Z,96193.00
2019-02-11T19:24:48.397Z,96217.00
2019-02-11T19:30:28.285Z,96228.00
2019-02-11T19:35:57.736Z,96231.00
2019-02-11T19:41:34.598Z,96229.00
2019-02-11T19:47:05.707Z,96237.00
2019-02-11T19:52:35.274Z,96246.00
2019-02-11T19:58:04.775Z,96249.00
2019-02-11T20:03:34.195Z,96259.00
2019-02-11T20:09:04.689Z,96275.00
2019-02-11T20:14:34.182Z,96264.00
2019-02-11T20:20:04.283Z,96286.00
2019-02-11T20:25:33.708Z,96285.00
2019-02-11T20:31:03.398Z,96291.00
2019-02-11T20:36:33.670Z,96302.00
2019-02-11T20:42:03.513Z,96325.00
2019-02-11T20:47:33.102Z,96331.00
2019-02-11T20:53:02.563Z,96329.00
2019-02-11T20:58:31.860Z,96329.00
2019-02-11T21:04:01.595Z,96345.00
2019-02-11T21:09:31.478Z,96333.00
2019-02-11T21:15:00.879Z,96334.00
2019-02-11T21:20:37.178Z,96377.00
2019-02-11T21:26:06.547Z,96420.00
2019-02-11T21:31:36.986Z,96433.00
2019-02-11T21:37:06.436Z,96425.00
2019-02-11T21:42:35.891Z,96429.00
2019-02-11T21:48:07.841Z,96414.00
2019-02-11T21:53:37.262Z,96418.00
2019-02-11T21:59:07.724Z,96430.00
2019-02-11T22:04:37.278Z,96429.00
2019-02-11T22:10:13.842Z,96416.00
2019-02-11T22:15:43.153Z,96415.00
2019-02-11T22:21:12.540Z,96425.00
2019-02-11T22:26:41.992Z,96422.00
2019-02-11T22:32:11.332Z,96420.00
2019-02-11T22:37:53.282Z,96421.00
2019-02-11T22:43:22.837Z,96425.00
2019-02-11T22:48:52.261Z,96435.00
2019-02-11T22:54:21.784Z,96437.00
2019-02-11T22:59:57.143Z,96435.00
2019-02-11T23:05:26.761Z,96444.00
2019-02-11T23:10:56.304Z,96445.00
2019-02-11T23:16:26.014Z,96466.00
2019-02-11T23:21:55.439Z,96479.00
2019-02-11T23:27:25.789Z,96476.00
2019-02-11T23:32:55.291Z,96490.00
2019-02-11T23:38:24.738Z,96491.00
2019-02-11T23:43:55.215Z,96490.00
2019-02-11T23:49:24.807Z,96492.00
2019-02-11T23:54:54.376Z,96479.00
